MMAA/ACA METAR and TAF weather

Enter ICAO airport designator
Station Type Date Time Source
MMAA METAR 2021/09/16 21:48 UTC NOAA

MMAA 162148Z 21004KT 6SM SCT015TCU BKN300 30/25 A2980 RMK 8/202 HZY CB NW


Station Type Date Time Source
MMAA Decoded METAR 2021/09/16 21:48 UTC NOAA

Acapulco / G. Alvarez, Mexico (MMAA) 16-46N 099-45W
Sep 16, 2021 - 05:48 PM EDT / 2021.09.16 2148 UTC
Wind: from the SSW (210 degrees) at 5 MPH (4 KT):0
Visibility: 6 mile(s):0
Sky conditions: mostly cloudy
Weather: Cumulonimbus clouds, towering cumulus clouds observed
Temperature: 86 F (30 C)
Heat index: 96.8 F (36.0 C):1
Dew Point: 77 F (25 C)
Relative Humidity: 74%
Pressure (altimeter): 29.8 in. Hg (1009 hPa)
ob: MMAA 162148Z 21004KT 6SM SCT015TCU BKN300 30/25 A2980 RMK 8/202 HZY CB NW
cycle: 22

Station Type Date Time Source
MMAA TAF 2021/09/16 18:39 UTC NOAA

TAF TAF MMAA 161736Z 1618/1724 23010KT P6SM SCT015 BKN300 TX31/1620Z TN24/1712Z
FM170300 03005KT P6SM VC TS SCT015 BKN080 PROB40 1706/1710 3SM TSRA BKN015CB
FM171200 03005KT P6SM SCT015 BKN300
FM171600 23010KT P6SM SCT015 BKN300
FM172300 23008KT P6SM SCT015CB BKN080

Example: see airport list